sensor_id;sensor_type;location;lat;lon;timestamp;P1;durP1;ratioP1;P2;durP2;ratioP2
41635;SDS011;27623;51.966;4.602;2023-02-12T00:01:10;13.13;;;6.95;;
41635;SDS011;27623;51.966;4.602;2023-02-12T00:03:37;14.07;;;7.72;;
41635;SDS011;27623;51.966;4.602;2023-02-12T00:06:03;15.77;;;7.35;;
41635;SDS011;27623;51.966;4.602;2023-02-12T00:08:28;14.88;;;7.32;;
41635;SDS011;27623;51.966;4.602;2023-02-12T00:10:54;13.68;;;7.25;;
41635;SDS011;27623;51.966;4.602;2023-02-12T00:13:19;12.68;;;6.93;;
41635;SDS011;27623;51.966;4.602;2023-02-12T00:15:45;12.40;;;6.82;;
41635;SDS011;27623;51.966;4.602;2023-02-12T00:18:10;10.10;;;6.40;;
41635;SDS011;27623;51.966;4.602;2023-02-12T00:20:36;9.85;;;5.93;;
41635;SDS011;27623;51.966;4.602;2023-02-12T00:23:03;12.93;;;7.00;;
41635;SDS011;27623;51.966;4.602;2023-02-12T00:25:28;12.18;;;6.72;;
41635;SDS011;27623;51.966;4.602;2023-02-12T00:27:54;11.90;;;7.68;;
41635;SDS011;27623;51.966;4.602;2023-02-12T00:30:19;12.18;;;7.70;;
41635;SDS011;27623;51.966;4.602;2023-02-12T00:32:45;15.23;;;7.45;;
41635;SDS011;27623;51.966;4.602;2023-02-12T00:35:10;12.95;;;6.72;;
41635;SDS011;27623;51.966;4.602;2023-02-12T00:37:36;12.10;;;6.68;;
41635;SDS011;27623;51.966;4.602;2023-02-12T00:40:02;13.30;;;6.93;;
41635;SDS011;27623;51.966;4.602;2023-02-12T00:42:28;11.63;;;7.30;;
41635;SDS011;27623;51.966;4.602;2023-02-12T00:44:53;11.38;;;6.90;;
41635;SDS011;27623;51.966;4.602;2023-02-12T00:47:18;14.45;;;6.90;;
41635;SDS011;27623;51.966;4.602;2023-02-12T00:49:44;11.32;;;6.28;;
41635;SDS011;27623;51.966;4.602;2023-02-12T00:52:09;12.80;;;6.55;;
41635;SDS011;27623;51.966;4.602;2023-02-12T00:54:35;13.30;;;6.47;;
41635;SDS011;27623;51.966;4.602;2023-02-12T00:57:00;13.52;;;7.07;;
41635;SDS011;27623;51.966;4.602;2023-02-12T00:59:25;13.10;;;6.80;;
41635;SDS011;27623;51.966;4.602;2023-02-12T01:01:51;16.88;;;6.47;;
41635;SDS011;27623;51.966;4.602;2023-02-12T01:04:18;12.38;;;6.57;;
41635;SDS011;27623;51.966;4.602;2023-02-12T01:06:44;11.85;;;6.18;;
41635;SDS011;27623;51.966;4.602;2023-02-12T01:09:10;12.63;;;7.38;;
41635;SDS011;27623;51.966;4.602;2023-02-12T01:11:35;16.38;;;8.65;;
41635;SDS011;27623;51.966;4.602;2023-02-12T01:14:01;10.77;;;7.35;;
41635;SDS011;27623;51.966;4.602;2023-02-12T01:16:27;14.98;;;7.53;;
41635;SDS011;27623;51.966;4.602;2023-02-12T01:18:55;15.00;;;6.70;;
41635;SDS011;27623;51.966;4.602;2023-02-12T01:21:27;10.95;;;7.25;;
41635;SDS011;27623;51.966;4.602;2023-02-12T01:23:55;12.80;;;7.65;;
41635;SDS011;27623;51.966;4.602;2023-02-12T01:26:21;14.57;;;8.00;;
41635;SDS011;27623;51.966;4.602;2023-02-12T01:28:49;16.55;;;8.05;;
41635;SDS011;27623;51.966;4.602;2023-02-12T01:31:18;14.00;;;8.75;;
41635;SDS011;27623;51.966;4.602;2023-02-12T01:33:46;12.95;;;8.13;;
41635;SDS011;27623;51.966;4.602;2023-02-12T01:36:13;16.58;;;9.38;;
41635;SDS011;27623;51.966;4.602;2023-02-12T01:38:39;14.93;;;8.52;;
41635;SDS011;27623;51.966;4.602;2023-02-12T01:41:05;17.17;;;8.30;;
41635;SDS011;27623;51.966;4.602;2023-02-12T01:43:36;13.30;;;7.80;;
41635;SDS011;27623;51.966;4.602;2023-02-12T01:46:02;17.88;;;8.68;;
41635;SDS011;27623;51.966;4.602;2023-02-12T01:48:30;14.63;;;8.32;;
41635;SDS011;27623;51.966;4.602;2023-02-12T01:51:08;14.20;;;8.02;;
41635;SDS011;27623;51.966;4.602;2023-02-12T01:53:40;16.70;;;8.50;;
41635;SDS011;27623;51.966;4.602;2023-02-12T01:56:11;14.48;;;8.63;;
41635;SDS011;27623;51.966;4.602;2023-02-12T01:58:37;18.05;;;8.80;;
41635;SDS011;27623;51.966;4.602;2023-02-12T02:01:06;16.60;;;8.52;;
41635;SDS011;27623;51.966;4.602;2023-02-12T02:03:35;14.00;;;8.55;;
41635;SDS011;27623;51.966;4.602;2023-02-12T02:06:03;13.90;;;8.52;;
41635;SDS011;27623;51.966;4.602;2023-02-12T02:08:34;13.32;;;8.10;;
41635;SDS011;27623;51.966;4.602;2023-02-12T02:11:01;13.88;;;7.75;;
41635;SDS011;27623;51.966;4.602;2023-02-12T02:16:30;13.07;;;7.95;;
41635;SDS011;27623;51.966;4.602;2023-02-12T02:19:07;12.65;;;7.78;;
41635;SDS011;27623;51.966;4.602;2023-02-12T02:30:12;14.05;;;8.73;;
41635;SDS011;27623;51.966;4.602;2023-02-12T02:38:22;12.85;;;9.30;;
41635;SDS011;27623;51.966;4.602;2023-02-12T02:44:05;14.70;;;9.15;;
41635;SDS011;27623;51.966;4.602;2023-02-12T02:46:48;16.13;;;9.52;;
41635;SDS011;27623;51.966;4.602;2023-02-12T02:49:16;13.45;;;8.93;;
41635;SDS011;27623;51.966;4.602;2023-02-12T02:52:02;14.27;;;9.07;;
41635;SDS011;27623;51.966;4.602;2023-02-12T02:54:35;12.60;;;8.33;;
41635;SDS011;27623;51.966;4.602;2023-02-12T02:59:47;18.23;;;9.32;;
41635;SDS011;27623;51.966;4.602;2023-02-12T03:02:19;15.68;;;9.77;;
41635;SDS011;27623;51.966;4.602;2023-02-12T03:04:50;16.42;;;9.65;;
41635;SDS011;27623;51.966;4.602;2023-02-12T03:07:20;15.85;;;9.40;;
41635;SDS011;27623;51.966;4.602;2023-02-12T03:12:50;13.38;;;8.52;;
41635;SDS011;27623;51.966;4.602;2023-02-12T03:17:48;19.27;;;9.63;;
41635;SDS011;27623;51.966;4.602;2023-02-12T03:20:18;18.00;;;9.27;;
41635;SDS011;27623;51.966;4.602;2023-02-12T03:28:18;17.42;;;9.23;;
41635;SDS011;27623;51.966;4.602;2023-02-12T03:30:48;14.30;;;8.95;;
41635;SDS011;27623;51.966;4.602;2023-02-12T03:33:24;15.18;;;9.18;;
41635;SDS011;27623;51.966;4.602;2023-02-12T03:38:58;14.55;;;8.98;;
41635;SDS011;27623;51.966;4.602;2023-02-12T03:41:43;17.90;;;9.30;;
41635;SDS011;27623;51.966;4.602;2023-02-12T03:49:31;18.33;;;8.75;;
41635;SDS011;27623;51.966;4.602;2023-02-12T03:52:03;12.68;;;8.77;;
41635;SDS011;27623;51.966;4.602;2023-02-12T03:54:29;15.07;;;9.13;;
41635;SDS011;27623;51.966;4.602;2023-02-12T03:59:30;16.00;;;10.13;;
41635;SDS011;27623;51.966;4.602;2023-02-12T04:01:58;11.95;;;9.10;;
41635;SDS011;27623;51.966;4.602;2023-02-12T04:04:24;14.95;;;9.75;;
41635;SDS011;27623;51.966;4.602;2023-02-12T04:06:50;17.17;;;9.82;;
41635;SDS011;27623;51.966;4.602;2023-02-12T04:09:17;15.60;;;9.15;;
41635;SDS011;27623;51.966;4.602;2023-02-12T04:14:49;13.93;;;9.27;;
41635;SDS011;27623;51.966;4.602;2023-02-12T04:17:29;15.65;;;9.25;;
41635;SDS011;27623;51.966;4.602;2023-02-12T04:20:19;17.77;;;9.45;;
41635;SDS011;27623;51.966;4.602;2023-02-12T04:31:44;14.68;;;9.43;;
41635;SDS011;27623;51.966;4.602;2023-02-12T04:34:15;13.55;;;9.02;;
41635;SDS011;27623;51.966;4.602;2023-02-12T04:36:50;15.32;;;8.95;;
41635;SDS011;27623;51.966;4.602;2023-02-12T04:39:19;13.15;;;9.00;;
41635;SDS011;27623;51.966;4.602;2023-02-12T04:41:50;15.35;;;8.88;;
41635;SDS011;27623;51.966;4.602;2023-02-12T04:44:18;13.77;;;8.52;;
41635;SDS011;27623;51.966;4.602;2023-02-12T04:46:47;11.52;;;7.90;;
41635;SDS011;27623;51.966;4.602;2023-02-12T04:49:14;15.65;;;8.68;;
41635;SDS011;27623;51.966;4.602;2023-02-12T04:51:41;14.68;;;9.63;;
41635;SDS011;27623;51.966;4.602;2023-02-12T04:54:07;13.80;;;8.82;;
41635;SDS011;27623;51.966;4.602;2023-02-12T04:56:33;15.38;;;9.18;;
41635;SDS011;27623;51.966;4.602;2023-02-12T04:58:58;13.93;;;8.18;;
41635;SDS011;27623;51.966;4.602;2023-02-12T05:01:23;15.15;;;9.20;;
41635;SDS011;27623;51.966;4.602;2023-02-12T05:03:50;12.93;;;9.07;;
41635;SDS011;27623;51.966;4.602;2023-02-12T05:06:16;12.52;;;8.45;;
41635;SDS011;27623;51.966;4.602;2023-02-12T05:08:41;14.93;;;9.15;;
41635;SDS011;27623;51.966;4.602;2023-02-12T05:11:07;12.95;;;8.50;;
41635;SDS011;27623;51.966;4.602;2023-02-12T05:13:34;16.65;;;8.90;;
41635;SDS011;27623;51.966;4.602;2023-02-12T05:16:03;13.02;;;8.13;;
41635;SDS011;27623;51.966;4.602;2023-02-12T05:18:30;14.88;;;8.95;;
41635;SDS011;27623;51.966;4.602;2023-02-12T05:20:59;14.30;;;8.73;;
41635;SDS011;27623;51.966;4.602;2023-02-12T05:23:26;12.88;;;7.93;;
41635;SDS011;27623;51.966;4.602;2023-02-12T05:25:59;12.73;;;8.25;;
41635;SDS011;27623;51.966;4.602;2023-02-12T05:28:26;17.10;;;8.65;;
41635;SDS011;27623;51.966;4.602;2023-02-12T05:30:52;14.10;;;8.70;;
41635;SDS011;27623;51.966;4.602;2023-02-12T05:33:17;12.35;;;8.27;;
41635;SDS011;27623;51.966;4.602;2023-02-12T05:35:45;13.23;;;8.40;;
41635;SDS011;27623;51.966;4.602;2023-02-12T05:38:10;12.60;;;8.30;;
41635;SDS011;27623;51.966;4.602;2023-02-12T05:40:36;14.80;;;8.30;;
41635;SDS011;27623;51.966;4.602;2023-02-12T05:43:02;14.70;;;9.65;;
41635;SDS011;27623;51.966;4.602;2023-02-12T05:45:31;13.80;;;8.68;;
41635;SDS011;27623;51.966;4.602;2023-02-12T05:47:56;14.05;;;9.18;;
41635;SDS011;27623;51.966;4.602;2023-02-12T05:50:22;14.10;;;8.38;;
41635;SDS011;27623;51.966;4.602;2023-02-12T05:52:47;16.40;;;8.95;;
41635;SDS011;27623;51.966;4.602;2023-02-12T05:55:13;14.95;;;8.43;;
41635;SDS011;27623;51.966;4.602;2023-02-12T05:57:38;14.35;;;8.20;;
41635;SDS011;27623;51.966;4.602;2023-02-12T06:00:05;15.35;;;8.88;;
41635;SDS011;27623;51.966;4.602;2023-02-12T06:02:33;14.63;;;8.63;;
41635;SDS011;27623;51.966;4.602;2023-02-12T06:04:58;13.05;;;8.18;;
41635;SDS011;27623;51.966;4.602;2023-02-12T06:07:24;12.88;;;8.77;;
41635;SDS011;27623;51.966;4.602;2023-02-12T06:09:49;12.00;;;8.27;;
41635;SDS011;27623;51.966;4.602;2023-02-12T06:12:15;15.07;;;8.90;;
41635;SDS011;27623;51.966;4.602;2023-02-12T06:14:40;14.45;;;8.38;;
41635;SDS011;27623;51.966;4.602;2023-02-12T06:17:08;12.60;;;8.55;;
41635;SDS011;27623;51.966;4.602;2023-02-12T06:19:34;12.88;;;7.93;;
41635;SDS011;27623;51.966;4.602;2023-02-12T06:22:00;13.25;;;7.53;;
41635;SDS011;27623;51.966;4.602;2023-02-12T06:24:25;14.57;;;9.40;;
41635;SDS011;27623;51.966;4.602;2023-02-12T06:26:51;11.73;;;7.85;;
41635;SDS011;27623;51.966;4.602;2023-02-12T06:29:20;13.98;;;8.35;;
41635;SDS011;27623;51.966;4.602;2023-02-12T06:31:46;13.18;;;8.43;;
41635;SDS011;27623;51.966;4.602;2023-02-12T06:34:13;13.75;;;8.27;;
41635;SDS011;27623;51.966;4.602;2023-02-12T06:36:42;10.85;;;7.45;;
41635;SDS011;27623;51.966;4.602;2023-02-12T06:39:09;12.25;;;7.82;;
41635;SDS011;27623;51.966;4.602;2023-02-12T06:41:38;11.45;;;8.07;;
41635;SDS011;27623;51.966;4.602;2023-02-12T06:44:04;12.80;;;8.13;;
41635;SDS011;27623;51.966;4.602;2023-02-12T06:46:30;13.38;;;8.00;;
41635;SDS011;27623;51.966;4.602;2023-02-12T06:48:56;15.00;;;8.30;;
41635;SDS011;27623;51.966;4.602;2023-02-12T06:51:23;15.18;;;8.35;;
41635;SDS011;27623;51.966;4.602;2023-02-12T06:53:49;14.65;;;9.07;;
41635;SDS011;27623;51.966;4.602;2023-02-12T06:56:18;14.07;;;8.15;;
41635;SDS011;27623;51.966;4.602;2023-02-12T06:58:45;15.00;;;8.45;;
41635;SDS011;27623;51.966;4.602;2023-02-12T07:01:13;13.82;;;8.00;;
41635;SDS011;27623;51.966;4.602;2023-02-12T07:03:42;12.20;;;7.97;;
41635;SDS011;27623;51.966;4.602;2023-02-12T07:06:11;11.98;;;7.95;;
41635;SDS011;27623;51.966;4.602;2023-02-12T07:08:36;14.55;;;8.38;;
41635;SDS011;27623;51.966;4.602;2023-02-12T07:11:04;13.07;;;8.90;;
41635;SDS011;27623;51.966;4.602;2023-02-12T07:13:30;13.02;;;7.75;;
41635;SDS011;27623;51.966;4.602;2023-02-12T07:16:01;13.48;;;8.88;;
41635;SDS011;27623;51.966;4.602;2023-02-12T07:18:29;11.85;;;7.72;;
41635;SDS011;27623;51.966;4.602;2023-02-12T07:20:55;12.88;;;7.93;;
41635;SDS011;27623;51.966;4.602;2023-02-12T07:23:20;14.18;;;8.07;;
41635;SDS011;27623;51.966;4.602;2023-02-12T07:25:59;13.40;;;8.45;;
41635;SDS011;27623;51.966;4.602;2023-02-12T07:28:27;13.95;;;7.75;;
41635;SDS011;27623;51.966;4.602;2023-02-12T07:30:57;14.35;;;8.07;;
41635;SDS011;27623;51.966;4.602;2023-02-12T07:33:23;15.63;;;7.90;;
41635;SDS011;27623;51.966;4.602;2023-02-12T07:35:51;12.88;;;8.18;;
41635;SDS011;27623;51.966;4.602;2023-02-12T07:38:16;13.40;;;8.32;;
41635;SDS011;27623;51.966;4.602;2023-02-12T07:40:41;14.32;;;8.52;;
41635;SDS011;27623;51.966;4.602;2023-02-12T07:43:07;13.32;;;7.63;;
41635;SDS011;27623;51.966;4.602;2023-02-12T07:45:32;14.50;;;8.30;;
41635;SDS011;27623;51.966;4.602;2023-02-12T07:48:00;12.95;;;8.15;;
41635;SDS011;27623;51.966;4.602;2023-02-12T07:50:25;14.35;;;8.85;;
41635;SDS011;27623;51.966;4.602;2023-02-12T07:52:51;13.43;;;7.47;;
41635;SDS011;27623;51.966;4.602;2023-02-12T07:55:16;14.95;;;8.27;;
41635;SDS011;27623;51.966;4.602;2023-02-12T07:57:42;16.55;;;8.85;;
41635;SDS011;27623;51.966;4.602;2023-02-12T08:00:07;14.38;;;8.38;;
41635;SDS011;27623;51.966;4.602;2023-02-12T08:02:33;13.43;;;8.20;;
41635;SDS011;27623;51.966;4.602;2023-02-12T08:04:59;13.55;;;7.75;;
41635;SDS011;27623;51.966;4.602;2023-02-12T08:07:24;14.45;;;8.43;;
41635;SDS011;27623;51.966;4.602;2023-02-12T08:09:50;13.20;;;8.60;;
41635;SDS011;27623;51.966;4.602;2023-02-12T08:12:16;13.50;;;8.35;;
41635;SDS011;27623;51.966;4.602;2023-02-12T08:14:42;12.65;;;7.70;;
41635;SDS011;27623;51.966;4.602;2023-02-12T08:17:08;13.77;;;7.55;;
41635;SDS011;27623;51.966;4.602;2023-02-12T08:19:34;12.45;;;8.07;;
41635;SDS011;27623;51.966;4.602;2023-02-12T08:21:59;12.82;;;7.97;;
41635;SDS011;27623;51.966;4.602;2023-02-12T08:24:27;12.93;;;8.35;;
41635;SDS011;27623;51.966;4.602;2023-02-12T08:26:53;13.32;;;8.32;;
41635;SDS011;27623;51.966;4.602;2023-02-12T08:29:19;17.23;;;8.68;;
41635;SDS011;27623;51.966;4.602;2023-02-12T08:31:48;15.52;;;9.50;;
41635;SDS011;27623;51.966;4.602;2023-02-12T08:34:22;15.13;;;8.77;;
41635;SDS011;27623;51.966;4.602;2023-02-12T08:36:49;14.57;;;7.90;;
41635;SDS011;27623;51.966;4.602;2023-02-12T08:39:16;12.55;;;7.88;;
41635;SDS011;27623;51.966;4.602;2023-02-12T08:41:42;15.45;;;9.20;;
41635;SDS011;27623;51.966;4.602;2023-02-12T08:44:08;15.52;;;8.32;;
41635;SDS011;27623;51.966;4.602;2023-02-12T08:46:36;13.52;;;7.90;;
41635;SDS011;27623;51.966;4.602;2023-02-12T08:49:05;15.57;;;9.02;;
41635;SDS011;27623;51.966;4.602;2023-02-12T08:51:36;14.75;;;7.78;;
41635;SDS011;27623;51.966;4.602;2023-02-12T08:54:05;14.13;;;8.38;;
41635;SDS011;27623;51.966;4.602;2023-02-12T08:56:32;15.13;;;8.52;;
41635;SDS011;27623;51.966;4.602;2023-02-12T08:59:00;14.07;;;8.25;;
41635;SDS011;27623;51.966;4.602;2023-02-12T09:01:29;13.70;;;8.48;;
41635;SDS011;27623;51.966;4.602;2023-02-12T09:03:55;16.33;;;8.23;;
41635;SDS011;27623;51.966;4.602;2023-02-12T09:06:21;14.65;;;7.82;;
41635;SDS011;27623;51.966;4.602;2023-02-12T09:08:49;13.75;;;8.63;;
41635;SDS011;27623;51.966;4.602;2023-02-12T09:11:16;11.95;;;7.45;;
41635;SDS011;27623;51.966;4.602;2023-02-12T09:13:44;14.65;;;9.15;;
41635;SDS011;27623;51.966;4.602;2023-02-12T09:16:11;13.00;;;6.95;;
41635;SDS011;27623;51.966;4.602;2023-02-12T09:18:37;13.48;;;7.85;;
41635;SDS011;27623;51.966;4.602;2023-02-12T09:21:07;13.60;;;7.20;;
41635;SDS011;27623;51.966;4.602;2023-02-12T09:23:35;12.48;;;8.20;;
41635;SDS011;27623;51.966;4.602;2023-02-12T09:26:08;14.70;;;8.90;;
41635;SDS011;27623;51.966;4.602;2023-02-12T09:28:36;13.50;;;8.85;;
41635;SDS011;27623;51.966;4.602;2023-02-12T09:31:05;13.90;;;8.30;;
41635;SDS011;27623;51.966;4.602;2023-02-12T09:33:32;14.48;;;8.30;;
41635;SDS011;27623;51.966;4.602;2023-02-12T09:36:02;14.90;;;8.63;;
41635;SDS011;27623;51.966;4.602;2023-02-12T09:38:28;13.85;;;9.18;;
41635;SDS011;27623;51.966;4.602;2023-02-12T09:44:16;13.55;;;9.25;;
41635;SDS011;27623;51.966;4.602;2023-02-12T09:46:53;28.90;;;9.70;;
41635;SDS011;27623;51.966;4.602;2023-02-12T09:52:00;16.10;;;8.25;;
41635;SDS011;27623;51.966;4.602;2023-02-12T09:54:32;15.00;;;8.10;;
41635;SDS011;27623;51.966;4.602;2023-02-12T09:57:04;14.02;;;8.90;;
41635;SDS011;27623;51.966;4.602;2023-02-12T09:59:43;15.50;;;9.05;;
41635;SDS011;27623;51.966;4.602;2023-02-12T10:02:15;14.00;;;8.30;;
41635;SDS011;27623;51.966;4.602;2023-02-12T10:04:43;15.93;;;9.35;;
41635;SDS011;27623;51.966;4.602;2023-02-12T10:12:39;14.88;;;7.85;;
41635;SDS011;27623;51.966;4.602;2023-02-12T10:17:45;16.70;;;9.27;;
41635;SDS011;27623;51.966;4.602;2023-02-12T10:29:21;47.05;;;13.63;;
41635;SDS011;27623;51.966;4.602;2023-02-12T10:32:00;23.35;;;8.50;;
41635;SDS011;27623;51.966;4.602;2023-02-12T10:34:32;17.83;;;8.95;;
41635;SDS011;27623;51.966;4.602;2023-02-12T10:39:51;67.80;;;15.68;;
41635;SDS011;27623;51.966;4.602;2023-02-12T10:42:25;48.05;;;10.82;;
41635;SDS011;27623;51.966;4.602;2023-02-12T10:44:57;19.65;;;8.15;;
41635;SDS011;27623;51.966;4.602;2023-02-12T10:47:22;18.10;;;8.50;;
41635;SDS011;27623;51.966;4.602;2023-02-12T10:49:49;18.50;;;9.35;;
41635;SDS011;27623;51.966;4.602;2023-02-12T10:52:40;12.93;;;8.02;;
41635;SDS011;27623;51.966;4.602;2023-02-12T10:55:30;14.63;;;8.93;;
41635;SDS011;27623;51.966;4.602;2023-02-12T10:58:03;17.02;;;8.40;;
41635;SDS011;27623;51.966;4.602;2023-02-12T11:00:33;13.45;;;7.40;;
41635;SDS011;27623;51.966;4.602;2023-02-12T11:05:38;15.90;;;8.00;;
41635;SDS011;27623;51.966;4.602;2023-02-12T11:08:05;14.82;;;8.20;;
41635;SDS011;27623;51.966;4.602;2023-02-12T11:10:32;12.93;;;8.40;;
41635;SDS011;27623;51.966;4.602;2023-02-12T11:13:01;13.82;;;8.38;;
41635;SDS011;27623;51.966;4.602;2023-02-12T11:15:37;15.55;;;8.45;;
41635;SDS011;27623;51.966;4.602;2023-02-12T11:18:19;14.82;;;8.43;;
41635;SDS011;27623;51.966;4.602;2023-02-12T11:20:49;14.15;;;8.77;;
41635;SDS011;27623;51.966;4.602;2023-02-12T11:23:27;16.10;;;8.50;;
41635;SDS011;27623;51.966;4.602;2023-02-12T11:28:27;12.48;;;8.18;;
41635;SDS011;27623;51.966;4.602;2023-02-12T11:30:58;14.98;;;8.43;;
41635;SDS011;27623;51.966;4.602;2023-02-12T11:35:55;16.17;;;8.32;;
41635;SDS011;27623;51.966;4.602;2023-02-12T11:38:28;16.20;;;9.20;;
41635;SDS011;27623;51.966;4.602;2023-02-12T11:41:01;17.75;;;8.70;;
41635;SDS011;27623;51.966;4.602;2023-02-12T11:43:46;17.00;;;7.95;;
41635;SDS011;27623;51.966;4.602;2023-02-12T11:46:16;14.73;;;8.02;;
41635;SDS011;27623;51.966;4.602;2023-02-12T11:48:45;17.42;;;8.95;;
41635;SDS011;27623;51.966;4.602;2023-02-12T11:51:17;15.52;;;8.00;;
41635;SDS011;27623;51.966;4.602;2023-02-12T11:53:49;14.63;;;8.25;;
41635;SDS011;27623;51.966;4.602;2023-02-12T11:56:20;16.38;;;8.20;;
41635;SDS011;27623;51.966;4.602;2023-02-12T11:58:47;14.32;;;7.82;;
41635;SDS011;27623;51.966;4.602;2023-02-12T12:09:02;13.48;;;7.97;;
41635;SDS011;27623;51.966;4.602;2023-02-12T12:17:03;14.45;;;7.82;;
41635;SDS011;27623;51.966;4.602;2023-02-12T12:20:06;11.15;;;6.65;;
41635;SDS011;27623;51.966;4.602;2023-02-12T12:25:28;9.57;;;6.07;;
41635;SDS011;27623;51.966;4.602;2023-02-12T12:28:10;13.05;;;5.32;;
41635;SDS011;27623;51.966;4.602;2023-02-12T12:30:47;15.90;;;7.18;;
41635;SDS011;27623;51.966;4.602;2023-02-12T12:35:52;12.05;;;6.07;;
41635;SDS011;27623;51.966;4.602;2023-02-12T12:49:52;10.65;;;5.30;;
41635;SDS011;27623;51.966;4.602;2023-02-12T13:11:55;10.98;;;6.15;;
41635;SDS011;27623;51.966;4.602;2023-02-12T13:17:17;14.02;;;7.43;;
41635;SDS011;27623;51.966;4.602;2023-02-12T13:20:05;11.00;;;6.53;;
41635;SDS011;27623;51.966;4.602;2023-02-12T13:22:36;12.90;;;7.45;;
41635;SDS011;27623;51.966;4.602;2023-02-12T13:27:39;13.43;;;7.10;;
41635;SDS011;27623;51.966;4.602;2023-02-12T13:32:43;16.35;;;7.90;;
41635;SDS011;27623;51.966;4.602;2023-02-12T13:35:21;14.13;;;7.40;;
41635;SDS011;27623;51.966;4.602;2023-02-12T13:37:52;14.93;;;7.82;;
41635;SDS011;27623;51.966;4.602;2023-02-12T13:40:21;12.82;;;7.78;;
41635;SDS011;27623;51.966;4.602;2023-02-12T13:43:10;25.80;;;8.32;;
41635;SDS011;27623;51.966;4.602;2023-02-12T13:56:58;17.00;;;8.32;;
41635;SDS011;27623;51.966;4.602;2023-02-12T14:05:04;16.80;;;8.63;;
41635;SDS011;27623;51.966;4.602;2023-02-12T14:07:55;17.23;;;8.93;;
41635;SDS011;27623;51.966;4.602;2023-02-12T14:10:30;16.92;;;9.32;;
41635;SDS011;27623;51.966;4.602;2023-02-12T14:13:16;15.70;;;8.95;;
41635;SDS011;27623;51.966;4.602;2023-02-12T14:15:47;14.40;;;8.43;;
41635;SDS011;27623;51.966;4.602;2023-02-12T14:23:33;17.08;;;9.07;;
41635;SDS011;27623;51.966;4.602;2023-02-12T14:26:02;20.83;;;9.10;;
41635;SDS011;27623;51.966;4.602;2023-02-12T14:33:44;17.92;;;9.68;;
41635;SDS011;27623;51.966;4.602;2023-02-12T14:36:12;19.15;;;9.75;;
41635;SDS011;27623;51.966;4.602;2023-02-12T14:41:31;20.25;;;10.65;;
41635;SDS011;27623;51.966;4.602;2023-02-12T14:49:56;24.27;;;11.45;;
41635;SDS011;27623;51.966;4.602;2023-02-12T14:52:28;23.13;;;11.93;;
41635;SDS011;27623;51.966;4.602;2023-02-12T14:54:57;22.65;;;12.20;;
41635;SDS011;27623;51.966;4.602;2023-02-12T14:57:28;22.10;;;11.82;;
41635;SDS011;27623;51.966;4.602;2023-02-12T15:00:00;22.93;;;11.80;;
41635;SDS011;27623;51.966;4.602;2023-02-12T15:05:19;20.92;;;11.55;;
41635;SDS011;27623;51.966;4.602;2023-02-12T15:15:58;19.40;;;10.70;;
41635;SDS011;27623;51.966;4.602;2023-02-12T15:21:06;22.15;;;11.82;;
41635;SDS011;27623;51.966;4.602;2023-02-12T15:24:10;21.40;;;10.98;;
41635;SDS011;27623;51.966;4.602;2023-02-12T15:26:46;36.67;;;16.48;;
41635;SDS011;27623;51.966;4.602;2023-02-12T15:29:27;27.60;;;11.75;;
41635;SDS011;27623;51.966;4.602;2023-02-12T15:32:00;21.50;;;11.60;;
41635;SDS011;27623;51.966;4.602;2023-02-12T15:34:31;23.50;;;12.07;;
41635;SDS011;27623;51.966;4.602;2023-02-12T15:36:59;22.15;;;12.35;;
41635;SDS011;27623;51.966;4.602;2023-02-12T15:39:26;23.38;;;12.65;;
41635;SDS011;27623;51.966;4.602;2023-02-12T15:41:57;24.38;;;13.25;;
41635;SDS011;27623;51.966;4.602;2023-02-12T15:44:27;30.48;;;14.07;;
41635;SDS011;27623;51.966;4.602;2023-02-12T15:49:40;26.63;;;14.00;;
41635;SDS011;27623;51.966;4.602;2023-02-12T15:54:45;31.80;;;15.52;;
41635;SDS011;27623;51.966;4.602;2023-02-12T15:57:18;29.05;;;15.38;;
41635;SDS011;27623;51.966;4.602;2023-02-12T15:59:49;26.85;;;14.73;;
41635;SDS011;27623;51.966;4.602;2023-02-12T16:02:26;24.90;;;13.38;;
41635;SDS011;27623;51.966;4.602;2023-02-12T16:04:53;24.75;;;13.13;;
41635;SDS011;27623;51.966;4.602;2023-02-12T16:07:20;26.90;;;13.80;;
41635;SDS011;27623;51.966;4.602;2023-02-12T16:09:51;26.70;;;12.57;;
41635;SDS011;27623;51.966;4.602;2023-02-12T16:12:19;26.25;;;13.63;;
41635;SDS011;27623;51.966;4.602;2023-02-12T16:14:48;25.85;;;13.00;;
41635;SDS011;27623;51.966;4.602;2023-02-12T16:17:22;24.10;;;12.85;;
41635;SDS011;27623;51.966;4.602;2023-02-12T16:20:00;26.02;;;13.02;;
41635;SDS011;27623;51.966;4.602;2023-02-12T16:22:38;24.00;;;12.50;;
41635;SDS011;27623;51.966;4.602;2023-02-12T16:25:12;26.95;;;13.50;;
41635;SDS011;27623;51.966;4.602;2023-02-12T16:32:52;28.30;;;13.50;;
41635;SDS011;27623;51.966;4.602;2023-02-12T16:37:53;28.45;;;13.73;;
41635;SDS011;27623;51.966;4.602;2023-02-12T16:47:51;28.80;;;15.23;;
41635;SDS011;27623;51.966;4.602;2023-02-12T16:50:20;32.92;;;16.65;;
41635;SDS011;27623;51.966;4.602;2023-02-12T16:52:48;32.03;;;15.85;;
41635;SDS011;27623;51.966;4.602;2023-02-12T16:55:14;37.38;;;16.95;;
41635;SDS011;27623;51.966;4.602;2023-02-12T16:57:41;32.83;;;16.25;;
41635;SDS011;27623;51.966;4.602;2023-02-12T17:00:07;32.60;;;15.52;;
41635;SDS011;27623;51.966;4.602;2023-02-12T17:02:39;33.55;;;16.65;;
41635;SDS011;27623;51.966;4.602;2023-02-12T17:05:04;34.08;;;17.17;;
41635;SDS011;27623;51.966;4.602;2023-02-12T17:07:33;38.17;;;16.90;;
41635;SDS011;27623;51.966;4.602;2023-02-12T17:09:59;34.80;;;16.98;;
41635;SDS011;27623;51.966;4.602;2023-02-12T17:12:25;38.10;;;17.25;;
41635;SDS011;27623;51.966;4.602;2023-02-12T17:14:51;32.67;;;15.70;;
41635;SDS011;27623;51.966;4.602;2023-02-12T17:17:17;35.17;;;17.63;;
41635;SDS011;27623;51.966;4.602;2023-02-12T17:19:42;29.77;;;16.30;;
41635;SDS011;27623;51.966;4.602;2023-02-12T17:22:15;36.25;;;17.67;;
41635;SDS011;27623;51.966;4.602;2023-02-12T17:24:43;40.30;;;19.00;;
41635;SDS011;27623;51.966;4.602;2023-02-12T17:27:15;44.15;;;18.58;;
41635;SDS011;27623;51.966;4.602;2023-02-12T17:29:40;39.65;;;17.83;;
41635;SDS011;27623;51.966;4.602;2023-02-12T17:32:06;40.47;;;19.20;;
41635;SDS011;27623;51.966;4.602;2023-02-12T17:34:33;38.45;;;18.60;;
41635;SDS011;27623;51.966;4.602;2023-02-12T17:37:01;35.22;;;16.67;;
41635;SDS011;27623;51.966;4.602;2023-02-12T17:39:28;38.95;;;17.50;;
41635;SDS011;27623;51.966;4.602;2023-02-12T17:41:53;46.25;;;20.67;;
41635;SDS011;27623;51.966;4.602;2023-02-12T17:44:19;47.67;;;21.10;;
41635;SDS011;27623;51.966;4.602;2023-02-12T17:46:44;45.92;;;21.35;;
41635;SDS011;27623;51.966;4.602;2023-02-12T17:49:10;46.03;;;20.65;;
41635;SDS011;27623;51.966;4.602;2023-02-12T17:51:36;43.28;;;20.38;;
41635;SDS011;27623;51.966;4.602;2023-02-12T17:54:02;44.75;;;19.13;;
41635;SDS011;27623;51.966;4.602;2023-02-12T17:56:28;39.90;;;18.80;;
41635;SDS011;27623;51.966;4.602;2023-02-12T17:58:53;36.13;;;17.85;;
41635;SDS011;27623;51.966;4.602;2023-02-12T18:01:20;35.58;;;16.73;;
41635;SDS011;27623;51.966;4.602;2023-02-12T18:03:47;40.40;;;17.50;;
41635;SDS011;27623;51.966;4.602;2023-02-12T18:06:20;32.25;;;15.68;;
41635;SDS011;27623;51.966;4.602;2023-02-12T18:08:49;35.35;;;17.02;;
41635;SDS011;27623;51.966;4.602;2023-02-12T18:11:15;40.90;;;20.45;;
41635;SDS011;27623;51.966;4.602;2023-02-12T18:13:43;42.88;;;19.23;;
41635;SDS011;27623;51.966;4.602;2023-02-12T18:16:09;34.60;;;17.48;;
41635;SDS011;27623;51.966;4.602;2023-02-12T18:18:35;33.50;;;15.48;;
41635;SDS011;27623;51.966;4.602;2023-02-12T18:21:05;35.80;;;16.25;;